Time;durP1;ratioP1;P1;durP2;ratioP2;P2;SDS_P1;SDS_P2;PMS_P1;PMS_P2;Temp;Humidity;BMP_temperature;BMP_pressure;BME280_temperature;BME280_humidity;BME280_pressure;Samples;Min_cycle;Max_cycle;Signal;HPM_P1;HPM_P2
2022/10/13 00:01:14;;;;;;;1999.90;999.90;;;11.30;99.90;;;;;;5031568;28;20508;-81
2022/10/13 00:03:41;;;;;;;1999.90;999.90;;;11.30;99.90;;;;;;5032280;28;20054;-81
2022/10/13 00:06:09;;;;;;;1999.90;999.90;;;11.30;99.90;;;;;;5018227;28;20041;-80
2022/10/13 00:08:36;;;;;;;1999.90;999.90;;;11.30;99.90;;;;;;5015805;28;20315;-82
2022/10/13 00:11:12;;;;;;;1999.90;999.90;;;11.30;99.90;;;;;;5040430;28;20370;-81
2022/10/13 00:13:39;;;;;;;1999.90;999.90;;;11.30;99.90;;;;;;5014347;28;20484;-80
2022/10/13 00:16:05;;;;;;;1999.90;999.90;;;11.40;99.90;;;;;;5014955;28;20056;-82
2022/10/13 00:18:30;;;;;;;1999.90;999.90;;;11.40;99.90;;;;;;5032666;28;20037;-83
2022/10/13 00:20:56;;;;;;;1999.90;999.90;;;11.40;99.90;;;;;;5042783;28;20491;-80
2022/10/13 00:23:22;;;;;;;1999.90;999.90;;;11.40;99.90;;;;;;5052885;28;20041;-80
2022/10/13 00:25:49;;;;;;;1999.90;999.90;;;11.30;99.90;;;;;;5042515;28;20085;-81
2022/10/13 00:28:17;;;;;;;1999.90;999.90;;;11.30;99.90;;;;;;5037959;28;20071;-81
2022/10/13 00:30:43;;;;;;;1999.90;999.90;;;11.30;99.90;;;;;;5039805;28;20052;-81
2022/10/13 00:33:10;;;;;;;1999.90;999.90;;;11.40;99.90;;;;;;5032985;28;20428;-82
2022/10/13 00:35:44;;;;;;;1999.90;999.90;;;11.50;99.90;;;;;;5034641;28;20052;-81
2022/10/13 00:38:10;;;;;;;1999.90;999.90;;;11.50;99.90;;;;;;5046593;28;20048;-81
2022/10/13 00:40:53;;;;;;;1999.90;999.90;;;11.30;99.90;;;;;;5042064;28;20127;-82
2022/10/13 00:43:23;;;;;;;1999.90;999.90;;;11.40;99.90;;;;;;5035784;28;20410;-81
2022/10/13 00:45:50;;;;;;;1999.90;999.90;;;11.30;99.90;;;;;;5040521;28;20045;-83
2022/10/13 00:48:24;;;;;;;1999.90;999.90;;;11.30;99.90;;;;;;5032647;28;20059;-82
2022/10/13 00:50:50;;;;;;;1999.90;999.90;;;11.30;99.90;;;;;;5034781;28;20366;-81
2022/10/13 00:53:20;;;;;;;1999.90;999.90;;;11.30;99.90;;;;;;5036568;28;20053;-82
2022/10/13 00:55:47;;;;;;;1999.90;999.90;;;11.70;99.90;;;;;;5030147;28;20049;-82
2022/10/13 00:58:18;;;;;;;1999.90;999.90;;;12.30;99.90;;;;;;5018585;28;20073;-81
2022/10/13 01:00:48;;;;;;;1999.90;999.90;;;11.60;99.90;;;;;;5037828;28;20044;-82
2022/10/13 01:03:15;;;;;;;1999.90;999.90;;;11.60;99.90;;;;;;5032725;28;20462;-82
2022/10/13 01:05:41;;;;;;;1999.90;999.90;;;11.30;99.90;;;;;;5034330;28;20045;-82
2022/10/13 01:08:08;;;;;;;1999.90;999.90;;;11.30;99.90;;;;;;5040923;28;20099;-82
2022/10/13 01:11:03;;;;;;;1999.90;999.90;;;11.30;99.90;;;;;;5042524;28;20040;-82
2022/10/13 01:13:55;;;;;;;1999.90;999.90;;;11.30;99.90;;;;;;5027497;28;20053;-82
2022/10/13 01:16:32;;;;;;;1999.90;999.90;;;11.30;99.90;;;;;;5029654;28;20227;-83
2022/10/13 01:19:14;;;;;;;1999.90;999.90;;;11.30;99.90;;;;;;5030719;28;20053;-82
2022/10/13 01:21:52;;;;;;;1999.90;999.90;;;11.30;99.90;;;;;;5042717;28;20048;-83
2022/10/13 01:24:40;;;;;;;1999.90;999.90;;;11.50;1.00;;;;;;5024451;28;20053;-82
2022/10/13 01:27:18;;;;;;;1999.90;999.90;;;11.30;1.00;;;;;;5026780;28;20324;-82
2022/10/13 01:30:11;;;;;;;1999.90;999.90;;;11.30;1.00;;;;;;5037312;28;20335;-82
2022/10/13 01:32:52;;;;;;;1999.90;999.90;;;11.20;1.00;;;;;;5030504;28;20076;-82
2022/10/13 01:35:31;;;;;;;1999.90;999.90;;;11.20;1.00;;;;;;5020937;28;20132;-82
2022/10/13 01:38:06;;;;;;;1999.90;999.90;;;11.20;1.00;;;;;;5031338;28;20049;-83
2022/10/13 01:40:59;;;;;;;1999.90;999.90;;;11.80;99.90;;;;;;5034970;28;20125;-83
2022/10/13 01:43:36;;;;;;;1999.90;999.90;;;11.40;99.90;;;;;;5030273;28;20053;-83
2022/10/13 01:46:08;;;;;;;1999.90;999.90;;;11.20;99.90;;;;;;5046154;28;20045;-82
2022/10/13 01:48:36;;;;;;;1999.90;999.90;;;11.10;99.90;;;;;;5035053;28;20069;-82
2022/10/13 01:51:05;;;;;;;1999.90;999.90;;;11.10;99.90;;;;;;5038035;28;20095;-82
2022/10/13 01:53:31;;;;;;;1999.90;999.90;;;11.10;99.90;;;;;;5030613;28;20045;-82
2022/10/13 01:55:59;;;;;;;1999.90;999.90;;;11.10;99.90;;;;;;5027629;28;20041;-83
2022/10/13 01:58:28;;;;;;;1999.90;999.90;;;11.10;99.90;;;;;;5033097;28;20044;-83
2022/10/13 02:01:24;;;;;;;1999.90;999.90;;;11.10;99.90;;;;;;5034846;28;20056;-82
2022/10/13 02:04:22;;;;;;;1999.90;999.90;;;11.10;99.90;;;;;;5030555;28;20053;-80
2022/10/13 02:06:56;;;;;;;1999.90;999.90;;;11.10;99.90;;;;;;5007537;28;20053;-81
2022/10/13 02:09:53;;;;;;;1999.90;999.90;;;11.10;99.90;;;;;;5030214;28;20460;-81
2022/10/13 02:12:41;;;;;;;1999.90;999.90;;;11.10;99.90;;;;;;5033381;28;20547;-81
2022/10/13 02:15:11;;;;;;;1999.90;999.90;;;11.10;99.90;;;;;;5032943;28;20092;-81
2022/10/13 02:17:37;;;;;;;1999.90;999.90;;;11.10;99.90;;;;;;5042887;28;20049;-82
2022/10/13 02:20:05;;;;;;;1999.90;999.90;;;11.20;1.00;;;;;;4998037;28;20041;-80
2022/10/13 02:22:38;;;;;;;1999.90;999.90;;;11.10;1.00;;;;;;5037403;28;20069;-81
2022/10/13 02:25:04;;;;;;;1999.90;999.90;;;11.10;1.00;;;;;;5027256;28;20049;-81
2022/10/13 02:27:30;;;;;;;1999.90;999.90;;;11.10;1.00;;;;;;5036810;28;20095;-80
2022/10/13 02:29:56;;;;;;;1999.90;999.90;;;11.10;1.00;;;;;;5029113;28;20063;-81
2022/10/13 02:32:22;;;;;;;1999.90;999.90;;;11.10;1.00;;;;;;5038934;28;20448;-83
2022/10/13 02:34:49;;;;;;;1999.90;999.90;;;11.10;1.00;;;;;;5034491;28;20053;-81
2022/10/13 02:37:14;;;;;;;1999.90;999.90;;;11.10;1.00;;;;;;5033968;28;20080;-81
2022/10/13 02:39:40;;;;;;;1999.90;999.90;;;11.10;1.00;;;;;;5029386;28;20081;-81
2022/10/13 02:42:06;;;;;;;1999.90;999.90;;;11.10;1.00;;;;;;5038111;28;20123;-80
2022/10/13 02:44:32;;;;;;;1999.90;999.90;;;12.30;1.00;;;;;;5036330;28;20054;-82
2022/10/13 02:46:57;;;;;;;1999.90;999.90;;;11.10;1.00;;;;;;5036457;28;20057;-82
2022/10/13 02:49:23;;;;;;;1999.90;999.90;;;11.10;1.00;;;;;;5034984;28;20045;-82
2022/10/13 02:51:49;;;;;;;1999.90;999.90;;;11.10;1.00;;;;;;5029151;28;20116;-82
2022/10/13 02:54:14;;;;;;;1999.90;999.90;;;11.10;1.00;;;;;;5030943;28;20554;-82
2022/10/13 02:56:40;;;;;;;1999.90;999.90;;;11.10;1.00;;;;;;5044941;28;20131;-83
2022/10/13 02:59:06;;;;;;;1999.90;999.90;;;11.30;1.00;;;;;;5032970;28;20394;-82
2022/10/13 03:01:31;;;;;;;1999.90;999.90;;;11.20;1.00;;;;;;5028973;28;20087;-82
2022/10/13 03:03:58;;;;;;;1999.90;999.90;;;11.20;1.00;;;;;;5029168;28;20141;-82
2022/10/13 03:06:24;;;;;;;1999.90;999.90;;;12.00;1.00;;;;;;5040558;28;20045;-82
2022/10/13 03:08:50;;;;;;;1999.90;999.90;;;11.20;99.90;;;;;;5031020;28;20048;-82
2022/10/13 03:11:15;;;;;;;1999.90;999.90;;;11.20;1.00;;;;;;5039615;28;20064;-82
2022/10/13 03:13:41;;;;;;;1999.90;999.90;;;11.20;47.70;;;;;;5009460;28;20124;-82
2022/10/13 03:16:07;;;;;;;1999.90;999.90;;;11.10;99.90;;;;;;5046548;28;20048;-81
2022/10/13 03:18:33;;;;;;;1999.90;999.90;;;12.70;1.00;;;;;;5029349;28;20041;-81
2022/10/13 03:21:04;;;;;;;1999.90;999.90;;;11.20;3.50;;;;;;5042843;28;20493;-83
2022/10/13 03:23:30;;;;;;;1999.90;999.90;;;12.10;19.40;;;;;;5024245;28;20057;-82
2022/10/13 03:25:56;;;;;;;1999.90;999.90;;;11.20;1.00;;;;;;5030423;28;20049;-81
2022/10/13 03:28:22;;;;;;;1999.90;999.90;;;11.40;17.80;;;;;;5027847;28;20052;-82
2022/10/13 03:30:48;;;;;;;1999.90;999.90;;;11.30;99.90;;;;;;5032764;28;20043;-82
2022/10/13 03:33:13;;;;;;;1999.90;999.90;;;11.30;99.90;;;;;;5038367;28;20536;-82
2022/10/13 03:35:39;;;;;;;1999.90;999.90;;;11.30;99.90;;;;;;5037458;28;20091;-83
2022/10/13 03:38:05;;;;;;;1999.90;999.90;;;11.50;99.90;;;;;;5030745;28;20077;-82
2022/10/13 03:40:31;;;;;;;1999.90;999.90;;;11.30;99.90;;;;;;5027513;28;20390;-82
2022/10/13 03:42:56;;;;;;;1999.90;999.90;;;11.50;99.90;;;;;;5027585;28;20113;-82
2022/10/13 03:45:22;;;;;;;1999.90;999.90;;;11.40;99.90;;;;;;5048124;28;20461;-83
2022/10/13 03:47:48;;;;;;;1999.90;999.90;;;11.50;1.00;;;;;;5033245;28;20103;-83
2022/10/13 03:50:13;;;;;;;1999.90;999.90;;;11.50;25.40;;;;;;5029730;28;20046;-83
2022/10/13 03:52:39;;;;;;;1999.90;999.90;;;11.50;99.90;;;;;;5011332;28;20038;-83
2022/10/13 03:55:05;;;;;;;1999.90;999.90;;;11.40;99.90;;;;;;5034367;28;20085;-84
2022/10/13 03:57:31;;;;;;;1999.90;999.90;;;11.40;99.90;;;;;;5034484;28;20080;-83
2022/10/13 03:59:57;;;;;;;1999.90;999.90;;;11.60;99.90;;;;;;5031875;28;20493;-83
2022/10/13 04:02:23;;;;;;;1999.90;999.90;;;11.40;99.90;;;;;;5026716;28;20041;-84
2022/10/13 04:04:49;;;;;;;1999.90;999.90;;;11.50;99.90;;;;;;5026216;28;20080;-85
2022/10/13 04:07:15;;;;;;;1999.90;999.90;;;11.40;99.90;;;;;;5026289;28;20072;-85
2022/10/13 04:09:41;;;;;;;1999.90;999.90;;;11.50;99.90;;;;;;5034813;28;20045;-85
2022/10/13 04:12:06;;;;;;;1999.90;999.90;;;11.70;1.00;;;;;;5037581;28;20040;-85
2022/10/13 04:14:32;;;;;;;1999.90;999.90;;;11.70;1.00;;;;;;5036470;28;20127;-87
2022/10/13 04:16:58;;;;;;;1999.90;999.90;;;11.60;1.80;;;;;;5034978;28;20168;-86
2022/10/13 04:19:24;;;;;;;1999.90;999.90;;;11.80;99.90;;;;;;5029534;28;20060;-87
2022/10/13 04:21:50;;;;;;;1999.90;999.90;;;13.10;99.90;;;;;;5043139;28;20111;-88
2022/10/13 04:24:16;;;;;;;1999.90;999.90;;;11.90;99.90;;;;;;5031154;28;20449;-88
2022/10/13 04:26:44;;;;;;;1999.90;999.90;;;12.00;99.90;;;;;;5030893;28;20045;-88
2022/10/13 04:29:10;;;;;;;1999.90;999.90;;;11.10;1.00;;;;;;5042855;28;20076;-88
2022/10/13 04:31:38;;;;;;;1999.90;999.90;;;11.70;90.60;;;;;;5052771;28;20136;-87
2022/10/13 04:34:04;;;;;;;1999.90;999.90;;;13.00;99.90;;;;;;5036006;28;20041;-88
2022/10/13 04:36:29;;;;;;;1999.90;999.90;;;11.80;99.90;;;;;;5039430;28;20085;-87
2022/10/13 04:38:55;;;;;;;1999.90;999.90;;;11.90;1.00;;;;;;5052236;28;20084;-89
2022/10/13 04:41:21;;;;;;;1999.90;999.90;;;12.00;1.00;;;;;;5037171;28;20140;-89
2022/10/13 04:43:48;;;;;;;1999.90;999.90;;;13.70;99.50;;;;;;5030498;28;20067;-88
2022/10/13 04:46:20;;;;;;;1999.90;999.90;;;12.00;99.90;;;;;;5038990;28;20090;-90
2022/10/13 04:48:46;;;;;;;1999.90;999.90;;;11.90;99.90;;;;;;5047070;28;20049;-90
2022/10/13 04:51:15;;;;;;;1999.90;999.90;;;12.20;1.00;;;;;;5031068;28;20057;-89
2022/10/13 04:53:41;;;;;;;1999.90;999.90;;;12.10;1.00;;;;;;5031420;28;20041;-89
2022/10/13 04:56:10;;;;;;;1999.90;999.90;;;12.10;74.50;;;;;;5034318;28;20036;-89
2022/10/13 04:58:37;;;;;;;1999.90;999.90;;;12.20;99.90;;;;;;5035200;28;20060;-90
2022/10/13 05:01:05;;;;;;;1999.90;999.90;;;12.20;99.90;;;;;;5019057;28;20046;-90
2022/10/13 05:03:31;;;;;;;1999.90;999.90;;;12.30;99.90;;;;;;5032888;28;20062;-89
2022/10/13 05:05:57;;;;;;;1999.90;999.90;;;12.30;99.90;;;;;;5034115;28;20056;-88
2022/10/13 05:08:23;;;;;;;1999.90;999.90;;;12.10;1.00;;;;;;5019262;28;20120;-89
2022/10/13 05:11:00;;;;;;;1999.90;999.90;;;12.10;1.00;;;;;;5036423;28;20382;-89
2022/10/13 05:13:27;;;;;;;1999.90;999.90;;;12.20;1.00;;;;;;5045197;28;20049;-88
2022/10/13 05:15:53;;;;;;;1999.90;999.90;;;12.50;19.10;;;;;;5024284;28;20059;-86
2022/10/13 05:18:19;;;;;;;1999.90;999.90;;;12.40;90.20;;;;;;5038370;28;20049;-87
2022/10/13 05:20:46;;;;;;;1999.90;999.90;;;12.40;99.90;;;;;;5040719;28;20131;-85
2022/10/13 05:23:13;;;;;;;1999.90;999.90;;;12.30;99.90;;;;;;5033375;28;20542;-85
2022/10/13 05:25:38;;;;;;;1999.90;999.90;;;12.20;99.90;;;;;;5032157;28;20045;-83
2022/10/13 05:28:05;;;;;;;1999.90;999.90;;;12.60;99.90;;;;;;5029412;28;20296;-84
2022/10/13 05:30:32;;;;;;;1999.90;999.90;;;12.90;99.90;;;;;;5032288;28;20046;-84
2022/10/13 05:32:58;;;;;;;1999.90;999.90;;;12.70;99.90;;;;;;5045253;28;20084;-83
2022/10/13 05:35:24;;;;;;;1999.90;999.90;;;12.40;99.90;;;;;;5028462;28;20088;-81
2022/10/13 05:37:50;;;;;;;1999.90;999.90;;;13.00;99.90;;;;;;5030798;28;20455;-83
2022/10/13 05:40:16;;;;;;;1999.90;999.90;;;12.70;99.90;;;;;;5037360;28;20045;-82
2022/10/13 05:42:41;;;;;;;1999.90;999.90;;;12.70;99.90;;;;;;5036390;28;20099;-82
2022/10/13 05:45:09;;;;;;;1999.90;999.90;;;13.30;99.90;;;;;;5032646;28;20041;-82
2022/10/13 05:47:35;;;;;;;1999.90;999.90;;;12.70;99.90;;;;;;5032647;28;20443;-80
2022/10/13 05:50:01;;;;;;;1999.90;999.90;;;13.50;99.90;;;;;;5031893;28;20102;-79
2022/10/13 05:52:28;;;;;;;1999.90;999.90;;;13.50;99.90;;;;;;5032108;28;20540;-78
2022/10/13 05:54:56;;;;;;;1999.90;999.90;;;12.80;99.90;;;;;;5050961;28;20056;-78
2022/10/13 05:57:34;;;;;;;1999.90;999.90;;;12.70;99.90;;;;;;5037463;28;20141;-80
2022/10/13 06:00:06;;;;;;;1999.90;999.90;;;13.60;99.90;;;;;;5030498;28;20127;-78
2022/10/13 06:02:53;;;;;;;1999.90;999.90;;;13.20;99.90;;;;;;5047948;28;20061;-78
2022/10/13 06:05:21;;;;;;;1999.90;999.90;;;13.90;99.90;;;;;;5053329;28;20056;-78
2022/10/13 06:07:47;;;;;;;1999.90;999.90;;;13.90;99.90;;;;;;5039985;28;20404;-81
2022/10/13 06:10:14;;;;;;;1999.90;999.90;;;14.00;99.90;;;;;;5037655;28;20029;-78
2022/10/13 06:12:40;;;;;;;1999.90;999.90;;;14.10;99.90;;;;;;5046354;28;20128;-79
2022/10/13 06:15:06;;;;;;;1999.90;999.90;;;14.00;99.90;;;;;;5044121;28;20127;-79
2022/10/13 06:17:35;;;;;;;1999.90;999.90;;;14.20;99.90;;;;;;5039388;28;20049;-79
2022/10/13 06:20:03;;;;;;;1999.90;999.90;;;13.80;99.90;;;;;;5034039;28;20037;-78
2022/10/13 06:22:28;;;;;;;1999.90;999.90;;;14.20;99.90;;;;;;5012806;28;20072;-78
2022/10/13 06:24:54;;;;;;;1999.90;999.90;;;14.10;99.90;;;;;;5027160;28;20041;-78
2022/10/13 06:27:19;;;;;;;1999.90;999.90;;;14.60;99.90;;;;;;5031162;28;20473;-78
2022/10/13 06:29:45;;;;;;;1999.90;999.90;;;13.10;99.90;;;;;;5032538;28;20084;-78
2022/10/13 06:32:11;;;;;;;1999.90;999.90;;;14.20;99.90;;;;;;5032027;28;20049;-79
2022/10/13 06:34:36;;;;;;;1999.90;999.90;;;13.20;99.90;;;;;;5032477;28;20056;-79
2022/10/13 06:37:02;;;;;;;1999.90;999.90;;;14.10;99.90;;;;;;5031638;28;20094;-78
2022/10/13 06:39:28;;;;;;;1999.90;999.90;;;14.30;99.90;;;;;;5050111;28;20179;-78
2022/10/13 06:41:54;;;;;;;1999.90;999.90;;;13.30;99.90;;;;;;5035155;28;20045;-78
2022/10/13 06:44:19;;;;;;;1999.90;999.90;;;13.20;99.90;;;;;;5035772;28;20048;-78
2022/10/13 06:46:45;;;;;;;1999.90;999.90;;;13.40;99.90;;;;;;5020421;28;20050;-78
2022/10/13 06:49:11;;;;;;;1999.90;999.90;;;14.50;99.90;;;;;;5042089;28;20044;-77
2022/10/13 06:51:36;;;;;;;1999.90;999.90;;;13.30;99.90;;;;;;5024314;28;20049;-77
2022/10/13 06:54:02;;;;;;;1999.90;999.90;;;13.30;99.90;;;;;;5031583;28;20049;-80
2022/10/13 06:56:29;;;;;;;1999.90;999.90;;;14.50;99.90;;;;;;5031810;28;20041;-77
2022/10/13 06:58:54;;;;;;;1999.90;999.90;;;13.90;99.90;;;;;;5040120;28;20138;-78
2022/10/13 07:01:20;;;;;;;1999.90;999.90;;;14.70;99.90;;;;;;5052162;28;20500;-78
2022/10/13 07:03:50;;;;;;;1999.90;999.90;;;14.70;99.90;;;;;;5047571;28;20052;-77
2022/10/13 07:06:16;;;;;;;1999.90;999.90;;;14.50;99.90;;;;;;5023063;28;20171;-77
2022/10/13 07:08:42;;;;;;;1999.90;999.90;;;14.10;99.90;;;;;;5031411;28;20048;-77
2022/10/13 07:11:11;;;;;;;1999.90;999.90;;;13.80;99.90;;;;;;5030643;28;20041;-76
2022/10/13 07:13:37;;;;;;;1999.90;999.90;;;14.60;99.90;;;;;;5020644;28;20176;-77
2022/10/13 07:16:04;;;;;;;1999.90;999.90;;;14.50;99.90;;;;;;5037158;28;20037;-77
2022/10/13 07:18:31;;;;;;;1999.90;999.90;;;14.60;99.90;;;;;;5047871;28;20405;-78
2022/10/13 07:20:58;;;;;;;1999.90;999.90;;;14.70;99.90;;;;;;5045032;28;20056;-78
2022/10/13 07:23:25;;;;;;;1999.90;999.90;;;14.80;99.90;;;;;;5021478;28;20046;-78
2022/10/13 07:25:51;;;;;;;1999.90;999.90;;;13.80;99.90;;;;;;5026389;28;20507;-77
2022/10/13 07:28:16;;;;;;;1999.90;999.90;;;14.60;99.90;;;;;;5023366;28;20188;-78
2022/10/13 07:30:42;;;;;;;1999.90;999.90;;;14.20;99.90;;;;;;5025830;28;20095;-76
2022/10/13 07:33:08;;;;;;;1999.90;999.90;;;14.40;99.90;;;;;;5051306;28;20052;-77
2022/10/13 07:35:37;;;;;;;1999.90;999.90;;;14.00;99.90;;;;;;5052090;28;20045;-77
2022/10/13 07:38:03;;;;;;;1999.90;999.90;;;15.10;99.90;;;;;;5050777;28;20134;-77
2022/10/13 07:40:29;;;;;;;1999.90;999.90;;;14.00;99.90;;;;;;5047132;28;20493;-77
2022/10/13 07:42:57;;;;;;;1999.90;999.90;;;14.80;99.90;;;;;;5049131;28;20060;-77
2022/10/13 07:45:24;;;;;;;1999.90;999.90;;;15.00;99.90;;;;;;5033419;28;20048;-77
2022/10/13 07:47:50;;;;;;;1999.90;999.90;;;14.90;99.90;;;;;;5051366;28;20132;-79
2022/10/13 07:50:15;;;;;;;1999.90;999.90;;;14.10;99.90;;;;;;5047832;28;20145;-78
2022/10/13 07:52:41;;;;;;;1999.90;999.90;;;15.40;99.90;;;;;;5050947;28;20068;-78
2022/10/13 07:55:07;;;;;;;1999.90;999.90;;;15.40;99.90;;;;;;5053091;28;20040;-77
2022/10/13 07:57:33;;;;;;;1999.90;999.90;;;14.70;99.90;;;;;;5036798;28;20136;-77
2022/10/13 08:00:00;;;;;;;1999.90;999.90;;;14.70;99.90;;;;;;5035560;28;20730;-77
2022/10/13 08:02:25;;;;;;;1999.90;999.90;;;15.70;99.90;;;;;;5053952;28;20041;-78
2022/10/13 08:04:51;;;;;;;1999.90;999.90;;;15.40;99.90;;;;;;5055309;28;20504;-78
2022/10/13 08:07:17;;;;;;;1999.90;999.90;;;15.90;99.90;;;;;;5054246;28;20045;-78
2022/10/13 08:09:43;;;;;;;1999.90;999.90;;;15.10;99.90;;;;;;5051018;28;20156;-77
2022/10/13 08:12:09;;;;;;;1999.90;999.90;;;14.80;99.90;;;;;;5023089;28;20042;-77
2022/10/13 08:14:35;;;;;;;1999.90;999.90;;;14.90;99.90;;;;;;5029620;28;20049;-77
2022/10/13 08:17:00;;;;;;;1999.90;999.90;;;16.20;99.90;;;;;;5034737;28;20053;-78
2022/10/13 08:19:27;;;;;;;1999.90;999.90;;;15.00;99.90;;;;;;5034350;28;20050;-77
2022/10/13 08:21:54;;;;;;;1999.90;999.90;;;16.40;99.90;;;;;;5033508;28;20564;-77
2022/10/13 08:24:21;;;;;;;1999.90;999.90;;;16.30;99.90;;;;;;5034505;28;20053;-77
2022/10/13 08:26:47;;;;;;;1999.90;999.90;;;15.10;99.90;;;;;;5033980;28;20463;-77
2022/10/13 08:29:14;;;;;;;1999.90;999.90;;;15.00;99.90;;;;;;5034278;28;20045;-77
2022/10/13 08:31:40;;;;;;;1999.90;999.90;;;16.50;99.90;;;;;;5045111;28;20481;-77
2022/10/13 08:34:06;;;;;;;1999.90;999.90;;;15.10;99.90;;;;;;5054347;28;20051;-78
2022/10/13 08:36:32;;;;;;;1999.90;999.90;;;15.30;99.90;;;;;;5054995;28;20044;-78
2022/10/13 08:38:58;;;;;;;1999.90;999.90;;;15.20;99.90;;;;;;5053616;28;20057;-78
2022/10/13 08:41:27;;;;;;;1999.90;999.90;;;16.60;99.90;;;;;;5045978;28;20041;-77
2022/10/13 08:44:02;;;;;;;1999.90;999.90;;;16.40;99.90;;;;;;5034195;28;20041;-77
2022/10/13 08:46:45;;;;;;;1999.90;999.90;;;16.50;99.90;;;;;;5034043;28;20492;-78
2022/10/13 08:49:13;;;;;;;1999.90;999.90;;;15.50;99.90;;;;;;5033750;28;20128;-79
2022/10/13 08:51:40;;;;;;;1999.90;999.90;;;16.00;99.90;;;;;;5038478;28;20139;-78
2022/10/13 08:54:05;;;;;;;1999.90;999.90;;;16.70;99.90;;;;;;5053945;28;20041;-77
2022/10/13 08:56:33;;;;;;;1999.90;999.90;;;15.80;99.90;;;;;;5035458;28;20056;-78
2022/10/13 08:59:00;;;;;;;;;;;16.80;99.90;;;;;;5014742;28;20048;-79
2022/10/13 09:01:36;;;;;;;1999.90;999.90;;;16.10;99.90;;;;;;5014089;28;19928;-77
2022/10/13 09:04:19;;;;;;;1999.90;999.90;;;16.40;99.90;;;;;;5050703;28;20064;-77
2022/10/13 09:07:08;;;;;;;1999.90;999.90;;;16.80;99.90;;;;;;5052337;28;20045;-79
2022/10/13 09:09:35;;;;;;;1999.90;999.90;;;15.70;99.90;;;;;;5052793;28;20048;-77
2022/10/13 09:12:02;;;;;;;1999.90;999.90;;;15.70;99.90;;;;;;5049125;28;20045;-78
2022/10/13 09:14:31;;;;;;;1999.90;999.90;;;15.70;99.90;;;;;;5033776;28;20060;-77
2022/10/13 09:17:14;;;;;;;1999.90;999.90;;;16.00;99.90;;;;;;5033842;28;20370;-78
2022/10/13 09:19:40;;;;;;;1999.90;999.90;;;17.10;99.90;;;;;;5033899;28;20049;-77
2022/10/13 09:22:23;;;;;;;1999.90;999.90;;;17.10;99.90;;;;;;5032930;28;20077;-79
2022/10/13 09:25:07;;;;;;;1999.90;999.90;;;17.20;99.90;;;;;;5028674;28;20077;-77
2022/10/13 09:27:54;;;;;;;1999.90;999.90;;;17.20;99.90;;;;;;5032257;28;20100;-77
2022/10/13 09:30:28;;;;;;;1999.90;999.90;;;16.30;99.90;;;;;;5032546;28;20095;-77
2022/10/13 09:33:21;;;;;;;1999.90;999.90;;;16.60;99.90;;;;;;5035152;28;20048;-78
2022/10/13 09:35:59;;;;;;;1999.90;999.90;;;15.90;99.90;;;;;;5051529;28;20407;-77
2022/10/13 09:38:26;;;;;;;1999.90;999.90;;;16.60;99.90;;;;;;5052597;28;20106;-79
2022/10/13 09:41:04;;;;;;;1999.90;999.90;;;16.90;99.90;;;;;;5052800;28;20508;-77
2022/10/13 09:43:33;;;;;;;1999.90;999.90;;;16.90;99.90;;;;;;5050285;28;20056;-78
2022/10/13 09:46:01;;;;;;;1999.90;999.90;;;17.10;99.90;;;;;;5036227;28;20053;-78
2022/10/13 09:48:31;;;;;;;1999.90;999.90;;;17.10;99.90;;;;;;5046969;28;20095;-79
2022/10/13 09:50:58;;;;;;;1999.90;999.90;;;16.50;99.90;;;;;;5053578;28;20052;-78
2022/10/13 09:53:36;;;;;;;1999.90;999.90;;;16.00;99.90;;;;;;5052733;28;20131;-79
2022/10/13 09:56:19;;;;;;;1999.90;999.90;;;17.20;99.90;;;;;;5051810;28;20045;-79
2022/10/13 09:59:35;;;;;;;1999.90;999.90;;;17.10;99.90;;;;;;5011243;28;20052;-79
2022/10/13 10:02:18;;;;;;;1999.90;999.90;;;16.70;99.90;;;;;;4951836;28;20047;-79
2022/10/13 10:04:44;;;;;;;1999.90;999.90;;;17.30;99.90;;;;;;5039061;28;20119;-78
2022/10/13 10:07:20;;;;;;;1999.90;999.90;;;17.00;99.90;;;;;;5051690;28;20052;-78
2022/10/13 10:09:53;;;;;;;1999.90;999.90;;;16.70;99.90;;;;;;5051671;28;20128;-78
2022/10/13 10:12:22;;;;;;;1999.90;999.90;;;16.10;99.90;;;;;;5051632;28;20388;-79
2022/10/13 10:14:49;;;;;;;1999.90;999.90;;;16.20;99.90;;;;;;5049837;28;20099;-78
2022/10/13 10:17:23;;;;;;;1999.90;999.90;;;17.40;99.90;;;;;;5042996;28;20045;-78
2022/10/13 10:20:05;;;;;;;1999.90;999.90;;;16.20;99.90;;;;;;5052765;28;20053;-79
2022/10/13 10:22:55;;;;;;;1999.90;999.90;;;17.40;99.90;;;;;;5051304;28;20503;-78
2022/10/13 10:26:01;;;;;;;1999.90;999.90;;;16.10;99.90;;;;;;5017095;28;20081;-79
2022/10/13 10:28:33;;;;;;;1999.90;999.90;;;16.20;99.90;;;;;;4950371;29;20087;-79
2022/10/13 10:31:36;;;;;;;1999.90;999.90;;;17.30;99.90;;;;;;4952225;29;20399;-79
2022/10/13 10:34:13;;;;;;;1999.90;999.90;;;17.50;99.90;;;;;;5002057;28;20064;-79
2022/10/13 10:37:04;;;;;;;1999.90;999.90;;;17.60;99.90;;;;;;5012715;28;20050;-78
2022/10/13 10:39:32;;;;;;;1999.90;999.90;;;17.50;99.90;;;;;;5012345;28;20052;-78
2022/10/13 10:42:01;;;;;;;1999.90;999.90;;;16.30;99.90;;;;;;5011703;28;20390;-78
2022/10/13 10:44:40;;;;;;;1999.90;999.90;;;17.80;99.90;;;;;;5014884;28;20045;-78
2022/10/13 10:47:34;;;;;;;1999.90;999.90;;;17.50;99.90;;;;;;5041244;28;20045;-79
2022/10/13 10:50:04;;;;;;;1999.90;999.90;;;16.80;99.90;;;;;;5051227;28;20544;-79
2022/10/13 10:53:03;;;;;;;1999.90;999.90;;;16.70;99.90;;;;;;5051609;28;20052;-79
2022/10/13 10:55:42;;;;;;;1999.90;999.90;;;16.60;99.90;;;;;;5042651;28;20052;-79
2022/10/13 10:58:31;;;;;;;1999.90;999.90;;;17.90;99.90;;;;;;5031329;28;20099;-78
2022/10/13 11:01:05;;;;;;;1999.90;999.90;;;17.40;99.90;;;;;;5030762;28;20071;-79
2022/10/13 11:04:09;;;;;;;1999.90;999.90;;;17.60;99.90;;;;;;5031406;28;20057;-78
2022/10/13 11:06:36;;;;;;;1999.90;999.90;;;16.60;99.90;;;;;;5045199;28;20080;-79
2022/10/13 11:09:03;;;;;;;1999.90;999.90;;;16.80;99.90;;;;;;5051701;28;20055;-78
2022/10/13 11:11:34;;;;;;;1999.90;999.90;;;16.60;99.90;;;;;;5028192;28;20042;-78
2022/10/13 11:14:09;;;;;;;1999.90;999.90;;;16.70;99.90;;;;;;5011585;28;20041;-78
2022/10/13 11:16:58;;;;;;;1999.90;999.90;;;17.20;99.90;;;;;;5032769;28;20048;-78
2022/10/13 11:19:32;;;;;;;1999.90;999.90;;;16.80;99.90;;;;;;5052348;28;20102;-78
2022/10/13 11:21:57;;;;;;;1999.90;999.90;;;17.50;99.90;;;;;;5048945;28;20116;-78
2022/10/13 11:24:32;;;;;;;1999.90;999.90;;;17.30;99.90;;;;;;5051864;28;20128;-78
2022/10/13 11:27:07;;;;;;;1999.90;999.90;;;18.10;99.90;;;;;;5042432;28;20064;-78
2022/10/13 11:29:45;;;;;;;1999.90;999.90;;;16.80;99.90;;;;;;5053315;28;20484;-78
2022/10/13 11:32:40;;;;;;;1999.90;999.90;;;18.30;99.90;;;;;;5038970;28;20069;-78
2022/10/13 11:35:05;;;;;;;1999.90;999.90;;;18.30;99.90;;;;;;5035632;28;20085;-78
2022/10/13 11:38:03;;;;;;;1999.90;999.90;;;16.80;99.90;;;;;;5046431;28;20134;-78
2022/10/13 11:40:35;;;;;;;1999.90;999.90;;;18.40;99.90;;;;;;5054173;28;20082;-78
2022/10/13 11:43:19;;;;;;;1999.90;999.90;;;18.50;99.90;;;;;;5052413;28;20493;-78
2022/10/13 11:46:14;;;;;;;1999.90;999.90;;;18.10;99.90;;;;;;5038620;28;20454;-78
2022/10/13 11:49:14;;;;;;;1999.90;999.90;;;18.50;99.90;;;;;;5015040;28;20042;-78
2022/10/13 11:51:56;;;;;;;1999.90;999.90;;;17.80;99.90;;;;;;5045783;28;20484;-77
2022/10/13 11:54:34;;;;;;;1999.90;999.90;;;18.70;99.90;;;;;;5055603;28;20477;-78
2022/10/13 11:56:59;;;;;;;1999.90;999.90;;;17.30;99.90;;;;;;5054353;28;20078;-78
2022/10/13 11:59:31;;;;;;;1999.90;999.90;;;18.60;99.90;;;;;;5054233;28;20040;-78
2022/10/13 12:02:12;;;;;;;1999.90;999.90;;;18.70;99.90;;;;;;5051869;28;20056;-78
2022/10/13 12:04:39;;;;;;;1999.90;999.90;;;18.40;99.90;;;;;;5051094;28;20417;-78
2022/10/13 12:07:08;;;;;;;1999.90;999.90;;;17.60;99.90;;;;;;5051442;28;20386;-78
2022/10/13 12:09:48;;;;;;;1999.90;999.90;;;18.80;99.90;;;;;;5039732;28;20132;-79
2022/10/13 12:12:17;;;;;;;1999.90;999.90;;;19.00;99.90;;;;;;5043835;28;20041;-78
2022/10/13 12:14:50;;;;;;;1999.90;999.90;;;18.50;99.90;;;;;;5053736;28;20136;-78
2022/10/13 12:17:25;;;;;;;1999.90;999.90;;;18.50;99.90;;;;;;5055162;28;20052;-78
2022/10/13 12:19:56;;;;;;;1999.90;999.90;;;19.00;99.90;;;;;;5042277;28;20042;-78